sensor_id;sensor_type;location;lat;lon;timestamp;pressure;altitude;pressure_sealevel;temperature;humidity
33280;BME280;20403;43.114;12.434;2023-05-09T00:01:10;99244.63;;;15.78;100.00
33280;BME280;20403;43.114;12.434;2023-05-09T00:03:35;99244.41;;;15.80;100.00
33280;BME280;20403;43.114;12.434;2023-05-09T00:06:01;99245.59;;;15.67;100.00
33280;BME280;20403;43.114;12.434;2023-05-09T00:08:26;99243.72;;;15.62;100.00
33280;BME280;20403;43.114;12.434;2023-05-09T00:10:52;99241.31;;;15.55;100.00
33280;BME280;20403;43.114;12.434;2023-05-09T00:13:18;99245.53;;;15.62;100.00
33280;BME280;20403;43.114;12.434;2023-05-09T00:15:43;99244.28;;;15.64;100.00
33280;BME280;20403;43.114;12.434;2023-05-09T00:18:09;99237.41;;;15.63;100.00
33280;BME280;20403;43.114;12.434;2023-05-09T00:20:35;99237.28;;;15.48;100.00
33280;BME280;20403;43.114;12.434;2023-05-09T00:23:00;99239.91;;;15.48;100.00
33280;BME280;20403;43.114;12.434;2023-05-09T00:25:26;99233.25;;;15.35;100.00
33280;BME280;20403;43.114;12.434;2023-05-09T00:27:51;99226.44;;;15.39;100.00
33280;BME280;20403;43.114;12.434;2023-05-09T00:30:17;99228.53;;;15.37;100.00
33280;BME280;20403;43.114;12.434;2023-05-09T00:32:42;99222.53;;;15.42;100.00
33280;BME280;20403;43.114;12.434;2023-05-09T00:35:08;99226.69;;;15.38;100.00
33280;BME280;20403;43.114;12.434;2023-05-09T00:37:34;99225.34;;;15.35;100.00
33280;BME280;20403;43.114;12.434;2023-05-09T00:39:59;99218.25;;;15.36;100.00
33280;BME280;20403;43.114;12.434;2023-05-09T00:42:24;99214.31;;;15.33;100.00
33280;BME280;20403;43.114;12.434;2023-05-09T00:44:50;99216.69;;;15.34;100.00
33280;BME280;20403;43.114;12.434;2023-05-09T00:47:15;99215.63;;;15.36;100.00
33280;BME280;20403;43.114;12.434;2023-05-09T00:49:41;99212.25;;;15.40;100.00
33280;BME280;20403;43.114;12.434;2023-05-09T00:52:07;99209.34;;;15.37;100.00
33280;BME280;20403;43.114;12.434;2023-05-09T00:54:32;99203.81;;;15.38;100.00
33280;BME280;20403;43.114;12.434;2023-05-09T00:56:58;99200.66;;;15.36;100.00
33280;BME280;20403;43.114;12.434;2023-05-09T00:59:24;99197.75;;;15.32;100.00
33280;BME280;20403;43.114;12.434;2023-05-09T01:01:50;99195.59;;;15.29;100.00
33280;BME280;20403;43.114;12.434;2023-05-09T01:04:16;99205.63;;;15.32;100.00
33280;BME280;20403;43.114;12.434;2023-05-09T01:06:59;99199.53;;;15.27;100.00
33280;BME280;20403;43.114;12.434;2023-05-09T01:09:55;99198.47;;;15.23;100.00
33280;BME280;20403;43.114;12.434;2023-05-09T01:20:41;99188.69;;;15.18;100.00
33280;BME280;20403;43.114;12.434;2023-05-09T01:26:18;99185.53;;;15.16;100.00
33280;BME280;20403;43.114;12.434;2023-05-09T01:31:49;99190.28;;;15.19;100.00
33280;BME280;20403;43.114;12.434;2023-05-09T01:34:17;99197.91;;;15.21;100.00
33280;BME280;20403;43.114;12.434;2023-05-09T01:36:43;99194.47;;;15.20;100.00
33280;BME280;20403;43.114;12.434;2023-05-09T01:39:12;99191.25;;;15.13;100.00
33280;BME280;20403;43.114;12.434;2023-05-09T01:41:38;99199.97;;;15.13;100.00
33280;BME280;20403;43.114;12.434;2023-05-09T01:44:07;99189.16;;;15.10;100.00
33280;BME280;20403;43.114;12.434;2023-05-09T01:46:35;99182.25;;;15.04;100.00
33280;BME280;20403;43.114;12.434;2023-05-09T01:49:01;99182.50;;;15.02;100.00
33280;BME280;20403;43.114;12.434;2023-05-09T01:51:28;99174.47;;;14.87;100.00
33280;BME280;20403;43.114;12.434;2023-05-09T01:53:56;99180.88;;;14.96;100.00
33280;BME280;20403;43.114;12.434;2023-05-09T01:56:23;99183.50;;;14.96;100.00
33280;BME280;20403;43.114;12.434;2023-05-09T01:58:50;99174.09;;;15.00;100.00
33280;BME280;20403;43.114;12.434;2023-05-09T02:01:18;99175.22;;;15.09;100.00
33280;BME280;20403;43.114;12.434;2023-05-09T02:03:44;99179.88;;;15.02;100.00
33280;BME280;20403;43.114;12.434;2023-05-09T02:06:11;99172.94;;;14.91;100.00
33280;BME280;20403;43.114;12.434;2023-05-09T02:08:38;99176.13;;;14.93;100.00
33280;BME280;20403;43.114;12.434;2023-05-09T02:11:06;99173.66;;;14.81;100.00
33280;BME280;20403;43.114;12.434;2023-05-09T02:13:31;99171.13;;;14.69;100.00
33280;BME280;20403;43.114;12.434;2023-05-09T02:15:57;99169.06;;;14.71;100.00
33280;BME280;20403;43.114;12.434;2023-05-09T02:18:23;99175.91;;;14.73;100.00
33280;BME280;20403;43.114;12.434;2023-05-09T02:20:48;99168.41;;;14.81;100.00
33280;BME280;20403;43.114;12.434;2023-05-09T02:23:13;99171.13;;;14.69;100.00
33280;BME280;20403;43.114;12.434;2023-05-09T02:25:40;99175.13;;;14.72;100.00
33280;BME280;20403;43.114;12.434;2023-05-09T02:28:06;99175.38;;;14.70;100.00
33280;BME280;20403;43.114;12.434;2023-05-09T02:30:36;99176.66;;;14.68;100.00
33280;BME280;20403;43.114;12.434;2023-05-09T02:33:05;99177.88;;;14.60;100.00
33280;BME280;20403;43.114;12.434;2023-05-09T02:35:31;99183.47;;;14.47;100.00
33280;BME280;20403;43.114;12.434;2023-05-09T02:37:58;99187.19;;;14.51;100.00
33280;BME280;20403;43.114;12.434;2023-05-09T02:40:26;99185.59;;;14.50;100.00
33280;BME280;20403;43.114;12.434;2023-05-09T02:42:52;99182.13;;;14.44;100.00
33280;BME280;20403;43.114;12.434;2023-05-09T02:45:17;99184.50;;;14.46;100.00
33280;BME280;20403;43.114;12.434;2023-05-09T02:47:43;99187.81;;;14.36;100.00
33280;BME280;20403;43.114;12.434;2023-05-09T02:50:08;99183.28;;;14.32;100.00
33280;BME280;20403;43.114;12.434;2023-05-09T02:52:34;99180.66;;;14.32;100.00
33280;BME280;20403;43.114;12.434;2023-05-09T02:54:59;99178.28;;;14.30;100.00
33280;BME280;20403;43.114;12.434;2023-05-09T02:57:25;99182.66;;;14.24;100.00
33280;BME280;20403;43.114;12.434;2023-05-09T02:59:51;99189.75;;;14.24;100.00
33280;BME280;20403;43.114;12.434;2023-05-09T03:02:16;99185.78;;;14.21;100.00
33280;BME280;20403;43.114;12.434;2023-05-09T03:04:42;99186.56;;;14.22;100.00
33280;BME280;20403;43.114;12.434;2023-05-09T03:07:07;99192.88;;;14.04;100.00
33280;BME280;20403;43.114;12.434;2023-05-09T03:09:33;99189.41;;;13.98;100.00
33280;BME280;20403;43.114;12.434;2023-05-09T03:11:58;99189.81;;;13.90;100.00
33280;BME280;20403;43.114;12.434;2023-05-09T03:14:23;99190.94;;;13.94;100.00
33280;BME280;20403;43.114;12.434;2023-05-09T03:16:49;99193.00;;;13.92;100.00
33280;BME280;20403;43.114;12.434;2023-05-09T03:19:14;99193.50;;;13.89;100.00
33280;BME280;20403;43.114;12.434;2023-05-09T03:21:40;99195.22;;;13.83;100.00
33280;BME280;20403;43.114;12.434;2023-05-09T03:24:06;99200.00;;;13.86;100.00
33280;BME280;20403;43.114;12.434;2023-05-09T03:26:32;99190.88;;;13.72;100.00
33280;BME280;20403;43.114;12.434;2023-05-09T03:29:00;99199.53;;;13.56;100.00
33280;BME280;20403;43.114;12.434;2023-05-09T03:31:25;99193.28;;;13.57;100.00
33280;BME280;20403;43.114;12.434;2023-05-09T03:33:51;99195.19;;;13.61;100.00
33280;BME280;20403;43.114;12.434;2023-05-09T03:36:16;99194.22;;;13.51;100.00
33280;BME280;20403;43.114;12.434;2023-05-09T03:38:42;99189.63;;;13.41;100.00
33280;BME280;20403;43.114;12.434;2023-05-09T03:41:07;99199.03;;;13.42;100.00
33280;BME280;20403;43.114;12.434;2023-05-09T03:43:32;99192.31;;;13.46;100.00
33280;BME280;20403;43.114;12.434;2023-05-09T03:45:58;99186.69;;;13.25;100.00
33280;BME280;20403;43.114;12.434;2023-05-09T03:48:23;99195.72;;;13.30;100.00
33280;BME280;20403;43.114;12.434;2023-05-09T03:50:49;99194.13;;;13.29;100.00
33280;BME280;20403;43.114;12.434;2023-05-09T03:53:14;99194.25;;;13.22;100.00
33280;BME280;20403;43.114;12.434;2023-05-09T03:55:40;99199.00;;;13.25;100.00
33280;BME280;20403;43.114;12.434;2023-05-09T03:58:05;99203.84;;;13.16;100.00
33280;BME280;20403;43.114;12.434;2023-05-09T04:00:30;99206.44;;;12.99;100.00
33280;BME280;20403;43.114;12.434;2023-05-09T04:02:56;99202.91;;;12.94;100.00
33280;BME280;20403;43.114;12.434;2023-05-09T04:05:21;99202.13;;;12.93;100.00
33280;BME280;20403;43.114;12.434;2023-05-09T04:07:47;99203.59;;;12.89;100.00
33280;BME280;20403;43.114;12.434;2023-05-09T04:10:12;99203.94;;;12.93;100.00
33280;BME280;20403;43.114;12.434;2023-05-09T04:12:38;99206.09;;;12.96;100.00
33280;BME280;20403;43.114;12.434;2023-05-09T04:15:03;99199.41;;;12.88;100.00
33280;BME280;20403;43.114;12.434;2023-05-09T04:17:29;99208.44;;;12.80;100.00
33280;BME280;20403;43.114;12.434;2023-05-09T04:19:54;99208.69;;;12.67;100.00
33280;BME280;20403;43.114;12.434;2023-05-09T04:22:20;99210.56;;;12.83;100.00
33280;BME280;20403;43.114;12.434;2023-05-09T04:24:45;99207.91;;;12.95;100.00
33280;BME280;20403;43.114;12.434;2023-05-09T04:27:11;99212.44;;;13.00;100.00
33280;BME280;20403;43.114;12.434;2023-05-09T04:29:36;99220.44;;;12.93;100.00
33280;BME280;20403;43.114;12.434;2023-05-09T04:32:03;99225.59;;;12.88;100.00
33280;BME280;20403;43.114;12.434;2023-05-09T04:34:29;99228.63;;;12.97;100.00
33280;BME280;20403;43.114;12.434;2023-05-09T04:36:54;99219.72;;;12.98;100.00
33280;BME280;20403;43.114;12.434;2023-05-09T04:39:20;99219.50;;;12.99;100.00
33280;BME280;20403;43.114;12.434;2023-05-09T04:41:46;99214.69;;;13.08;100.00
33280;BME280;20403;43.114;12.434;2023-05-09T04:44:15;99218.81;;;13.33;100.00
33280;BME280;20403;43.114;12.434;2023-05-09T04:46:41;99219.06;;;13.48;100.00
33280;BME280;20403;43.114;12.434;2023-05-09T04:49:07;99211.47;;;13.63;100.00
33280;BME280;20403;43.114;12.434;2023-05-09T04:51:33;99217.56;;;13.69;100.00
33280;BME280;20403;43.114;12.434;2023-05-09T04:53:58;99219.22;;;13.75;100.00
33280;BME280;20403;43.114;12.434;2023-05-09T04:56:24;99225.41;;;13.86;100.00
33280;BME280;20403;43.114;12.434;2023-05-09T04:58:49;99225.09;;;13.82;100.00
33280;BME280;20403;43.114;12.434;2023-05-09T05:01:15;99222.06;;;13.91;100.00
33280;BME280;20403;43.114;12.434;2023-05-09T05:03:41;99215.69;;;14.03;100.00
33280;BME280;20403;43.114;12.434;2023-05-09T05:06:07;99212.47;;;14.18;100.00
33280;BME280;20403;43.114;12.434;2023-05-09T05:08:32;99214.38;;;14.23;100.00
33280;BME280;20403;43.114;12.434;2023-05-09T05:10:58;99208.28;;;14.39;100.00
33280;BME280;20403;43.114;12.434;2023-05-09T05:13:23;99213.91;;;14.48;100.00
33280;BME280;20403;43.114;12.434;2023-05-09T05:15:49;99223.03;;;14.62;100.00
33280;BME280;20403;43.114;12.434;2023-05-09T05:18:14;99219.53;;;14.79;100.00
33280;BME280;20403;43.114;12.434;2023-05-09T05:20:40;99223.13;;;14.95;100.00
33280;BME280;20403;43.114;12.434;2023-05-09T05:23:07;99225.91;;;15.10;100.00
33280;BME280;20403;43.114;12.434;2023-05-09T05:25:32;99221.56;;;15.21;100.00
33280;BME280;20403;43.114;12.434;2023-05-09T05:27:58;99225.25;;;15.25;100.00
33280;BME280;20403;43.114;12.434;2023-05-09T05:30:23;99222.16;;;15.28;100.00
33280;BME280;20403;43.114;12.434;2023-05-09T05:32:48;99220.94;;;15.41;100.00
33280;BME280;20403;43.114;12.434;2023-05-09T05:35:14;99221.78;;;15.46;100.00
33280;BME280;20403;43.114;12.434;2023-05-09T05:37:40;99214.47;;;15.53;100.00
33280;BME280;20403;43.114;12.434;2023-05-09T05:40:06;99214.22;;;15.55;100.00
33280;BME280;20403;43.114;12.434;2023-05-09T05:42:32;99214.84;;;15.67;100.00
33280;BME280;20403;43.114;12.434;2023-05-09T05:44:58;99209.19;;;15.81;100.00
33280;BME280;20403;43.114;12.434;2023-05-09T05:47:34;99210.31;;;15.95;100.00
33280;BME280;20403;43.114;12.434;2023-05-09T05:50:00;99208.53;;;16.06;100.00
33280;BME280;20403;43.114;12.434;2023-05-09T05:52:26;99208.38;;;16.23;100.00
33280;BME280;20403;43.114;12.434;2023-05-09T05:54:53;99210.56;;;16.36;100.00
33280;BME280;20403;43.114;12.434;2023-05-09T05:57:19;99212.19;;;16.52;100.00
33280;BME280;20403;43.114;12.434;2023-05-09T05:59:48;99213.28;;;16.67;100.00
33280;BME280;20403;43.114;12.434;2023-05-09T06:02:14;99210.13;;;16.75;100.00
33280;BME280;20403;43.114;12.434;2023-05-09T06:04:40;99207.06;;;16.88;100.00
33280;BME280;20403;43.114;12.434;2023-05-09T06:07:06;99201.03;;;17.03;100.00
33280;BME280;20403;43.114;12.434;2023-05-09T06:09:31;99207.09;;;17.14;100.00
33280;BME280;20403;43.114;12.434;2023-05-09T06:11:56;99198.69;;;17.22;100.00
33280;BME280;20403;43.114;12.434;2023-05-09T06:14:22;99206.56;;;17.37;100.00
33280;BME280;20403;43.114;12.434;2023-05-09T06:16:47;99203.69;;;17.59;100.00
33280;BME280;20403;43.114;12.434;2023-05-09T06:19:13;99196.28;;;17.72;100.00
33280;BME280;20403;43.114;12.434;2023-05-09T06:21:38;99193.13;;;17.90;100.00
33280;BME280;20403;43.114;12.434;2023-05-09T06:24:04;99195.97;;;18.04;100.00
33280;BME280;20403;43.114;12.434;2023-05-09T06:26:29;99195.97;;;18.14;100.00
33280;BME280;20403;43.114;12.434;2023-05-09T06:28:55;99192.22;;;18.20;100.00
33280;BME280;20403;43.114;12.434;2023-05-09T06:31:20;99187.66;;;18.41;100.00
33280;BME280;20403;43.114;12.434;2023-05-09T06:33:46;99182.59;;;18.55;100.00
33280;BME280;20403;43.114;12.434;2023-05-09T06:36:11;99179.13;;;18.65;100.00
33280;BME280;20403;43.114;12.434;2023-05-09T06:38:36;99181.69;;;18.75;100.00
33280;BME280;20403;43.114;12.434;2023-05-09T06:41:02;99186.66;;;18.87;100.00
33280;BME280;20403;43.114;12.434;2023-05-09T06:43:27;99190.25;;;19.06;100.00
33280;BME280;20403;43.114;12.434;2023-05-09T06:45:53;99185.50;;;19.03;100.00
33280;BME280;20403;43.114;12.434;2023-05-09T06:48:18;99181.69;;;19.20;100.00
33280;BME280;20403;43.114;12.434;2023-05-09T06:50:44;99176.59;;;19.28;100.00
33280;BME280;20403;43.114;12.434;2023-05-09T06:53:09;99179.13;;;19.44;100.00
33280;BME280;20403;43.114;12.434;2023-05-09T06:55:35;99181.44;;;19.50;100.00
33280;BME280;20403;43.114;12.434;2023-05-09T06:58:00;99178.66;;;19.66;100.00
33280;BME280;20403;43.114;12.434;2023-05-09T07:00:25;99176.59;;;19.92;100.00
33280;BME280;20403;43.114;12.434;2023-05-09T07:02:51;99179.81;;;20.08;100.00
33280;BME280;20403;43.114;12.434;2023-05-09T07:05:16;99171.22;;;20.21;100.00
33280;BME280;20403;43.114;12.434;2023-05-09T07:07:42;99168.88;;;20.39;100.00
33280;BME280;20403;43.114;12.434;2023-05-09T07:10:08;99177.00;;;20.47;100.00
33280;BME280;20403;43.114;12.434;2023-05-09T07:12:34;99173.97;;;20.59;100.00
33280;BME280;20403;43.114;12.434;2023-05-09T07:14:59;99169.72;;;20.77;100.00
33280;BME280;20403;43.114;12.434;2023-05-09T07:17:25;99168.81;;;20.87;100.00
33280;BME280;20403;43.114;12.434;2023-05-09T07:19:50;99172.22;;;21.06;100.00
33280;BME280;20403;43.114;12.434;2023-05-09T07:22:16;99168.31;;;21.17;100.00
33280;BME280;20403;43.114;12.434;2023-05-09T07:24:41;99168.31;;;21.17;100.00
33280;BME280;20403;43.114;12.434;2023-05-09T07:27:08;99174.53;;;21.27;100.00
33280;BME280;20403;43.114;12.434;2023-05-09T07:29:33;99169.50;;;21.44;100.00
33280;BME280;20403;43.114;12.434;2023-05-09T07:31:59;99169.03;;;21.42;100.00
33280;BME280;20403;43.114;12.434;2023-05-09T07:34:24;99169.84;;;21.56;100.00
33280;BME280;20403;43.114;12.434;2023-05-09T07:36:50;99171.63;;;21.75;100.00
33280;BME280;20403;43.114;12.434;2023-05-09T07:39:15;99175.94;;;21.85;100.00
33280;BME280;20403;43.114;12.434;2023-05-09T07:41:41;99168.19;;;21.88;100.00
33280;BME280;20403;43.114;12.434;2023-05-09T07:44:06;99175.66;;;22.00;100.00
33280;BME280;20403;43.114;12.434;2023-05-09T07:46:34;99174.56;;;22.15;100.00
33280;BME280;20403;43.114;12.434;2023-05-09T07:49:01;99173.81;;;22.28;100.00
33280;BME280;20403;43.114;12.434;2023-05-09T07:51:26;99175.75;;;22.36;100.00
33280;BME280;20403;43.114;12.434;2023-05-09T07:53:52;99179.09;;;22.42;100.00
33280;BME280;20403;43.114;12.434;2023-05-09T07:56:19;99176.13;;;22.43;100.00
33280;BME280;20403;43.114;12.434;2023-05-09T07:58:45;99175.22;;;22.62;100.00
33280;BME280;20403;43.114;12.434;2023-05-09T08:01:10;99169.13;;;22.61;100.00
33280;BME280;20403;43.114;12.434;2023-05-09T08:03:36;99164.84;;;22.74;100.00
33280;BME280;20403;43.114;12.434;2023-05-09T08:06:01;99159.50;;;22.88;100.00
33280;BME280;20403;43.114;12.434;2023-05-09T08:08:27;99164.16;;;23.05;100.00
33280;BME280;20403;43.114;12.434;2023-05-09T08:10:52;99160.19;;;23.16;100.00
33280;BME280;20403;43.114;12.434;2023-05-09T08:13:17;99157.22;;;23.18;100.00
33280;BME280;20403;43.114;12.434;2023-05-09T08:15:43;99160.81;;;23.44;100.00
33280;BME280;20403;43.114;12.434;2023-05-09T08:18:09;99151.38;;;23.69;100.00
33280;BME280;20403;43.114;12.434;2023-05-09T08:20:34;99155.00;;;23.74;98.11
33280;BME280;20403;43.114;12.434;2023-05-09T08:23:00;99151.19;;;23.66;91.15
33280;BME280;20403;43.114;12.434;2023-05-09T08:25:25;99150.13;;;23.67;95.52
33280;BME280;20403;43.114;12.434;2023-05-09T08:27:51;99151.56;;;23.73;84.80
33280;BME280;20403;43.114;12.434;2023-05-09T08:30:16;99149.56;;;23.79;78.92
33280;BME280;20403;43.114;12.434;2023-05-09T08:32:42;99150.19;;;23.84;87.50
33280;BME280;20403;43.114;12.434;2023-05-09T08:35:07;99146.97;;;23.96;90.09
33280;BME280;20403;43.114;12.434;2023-05-09T08:37:34;99147.47;;;24.16;93.27
33280;BME280;20403;43.114;12.434;2023-05-09T08:40:00;99153.47;;;24.30;89.65
33280;BME280;20403;43.114;12.434;2023-05-09T08:42:27;99160.22;;;24.36;88.08
33280;BME280;20403;43.114;12.434;2023-05-09T08:44:53;99157.44;;;24.59;90.74
33280;BME280;20403;43.114;12.434;2023-05-09T08:47:19;99155.38;;;24.38;73.60
33280;BME280;20403;43.114;12.434;2023-05-09T08:49:46;99144.25;;;24.53;85.99
33280;BME280;20403;43.114;12.434;2023-05-09T08:52:13;99156.66;;;24.67;80.03
33280;BME280;20403;43.114;12.434;2023-05-09T08:54:39;99150.25;;;24.68;72.21
33280;BME280;20403;43.114;12.434;2023-05-09T08:57:04;99150.69;;;24.87;78.99
33280;BME280;20403;43.114;12.434;2023-05-09T08:59:30;99151.94;;;24.90;76.68
33280;BME280;20403;43.114;12.434;2023-05-09T09:01:59;99135.28;;;24.93;81.82
33280;BME280;20403;43.114;12.434;2023-05-09T09:04:24;99131.53;;;24.85;71.19
33280;BME280;20403;43.114;12.434;2023-05-09T09:06:50;99139.97;;;25.13;75.86
33280;BME280;20403;43.114;12.434;2023-05-09T09:09:18;99136.69;;;25.16;72.09
33280;BME280;20403;43.114;12.434;2023-05-09T09:11:44;99140.56;;;25.45;72.14
33280;BME280;20403;43.114;12.434;2023-05-09T09:14:15;99124.72;;;25.40;65.42
33280;BME280;20403;43.114;12.434;2023-05-09T09:16:46;99125.91;;;24.95;63.13
33280;BME280;20403;43.114;12.434;2023-05-09T09:19:16;99129.59;;;25.29;69.57
33280;BME280;20403;43.114;12.434;2023-05-09T09:21:44;99125.09;;;25.60;64.07
33280;BME280;20403;43.114;12.434;2023-05-09T09:24:17;99124.41;;;25.71;71.88
33280;BME280;20403;43.114;12.434;2023-05-09T09:26:47;99121.06;;;25.83;63.34
33280;BME280;20403;43.114;12.434;2023-05-09T09:29:13;99115.50;;;25.97;59.40
33280;BME280;20403;43.114;12.434;2023-05-09T09:31:43;99111.75;;;25.98;60.54
33280;BME280;20403;43.114;12.434;2023-05-09T09:34:08;99100.19;;;26.06;57.21
33280;BME280;20403;43.114;12.434;2023-05-09T09:36:34;99108.22;;;26.27;59.47
33280;BME280;20403;43.114;12.434;2023-05-09T09:39:03;99101.06;;;26.40;58.88
33280;BME280;20403;43.114;12.434;2023-05-09T09:41:33;99107.59;;;26.51;58.81
33280;BME280;20403;43.114;12.434;2023-05-09T09:44:14;99092.03;;;26.11;56.60
33280;BME280;20403;43.114;12.434;2023-05-09T09:46:44;99093.22;;;25.93;59.31
33280;BME280;20403;43.114;12.434;2023-05-09T09:49:12;99094.56;;;25.69;58.64
33280;BME280;20403;43.114;12.434;2023-05-09T09:51:38;99087.44;;;25.91;61.05
33280;BME280;20403;43.114;12.434;2023-05-09T09:54:08;99083.84;;;26.29;61.09
33280;BME280;20403;43.114;12.434;2023-05-09T09:56:45;99078.50;;;26.29;54.76
33280;BME280;20403;43.114;12.434;2023-05-09T09:59:21;99075.91;;;26.62;57.16
33280;BME280;20403;43.114;12.434;2023-05-09T10:02:03;99074.25;;;26.70;56.00
33280;BME280;20403;43.114;12.434;2023-05-09T10:04:36;99073.72;;;26.76;51.87
33280;BME280;20403;43.114;12.434;2023-05-09T10:07:07;99071.75;;;26.98;52.17
33280;BME280;20403;43.114;12.434;2023-05-09T10:09:35;99074.44;;;26.98;50.85
33280;BME280;20403;43.114;12.434;2023-05-09T10:12:07;99068.72;;;26.87;49.84
33280;BME280;20403;43.114;12.434;2023-05-09T10:14:34;99066.19;;;26.91;53.65
33280;BME280;20403;43.114;12.434;2023-05-09T10:17:02;99061.75;;;26.95;55.15
33280;BME280;20403;43.114;12.434;2023-05-09T10:19:28;99058.22;;;27.40;54.29
33280;BME280;20403;43.114;12.434;2023-05-09T10:21:59;99060.56;;;27.54;50.95
33280;BME280;20403;43.114;12.434;2023-05-09T10:27:08;99059.88;;;26.62;53.99
33280;BME280;20403;43.114;12.434;2023-05-09T10:29:38;99055.09;;;26.68;53.14
33280;BME280;20403;43.114;12.434;2023-05-09T10:32:28;99062.63;;;26.32;54.70
33280;BME280;20403;43.114;12.434;2023-05-09T10:35:00;99054.59;;;26.32;53.07
33280;BME280;20403;43.114;12.434;2023-05-09T10:37:26;99040.97;;;26.92;52.31
33280;BME280;20403;43.114;12.434;2023-05-09T10:39:53;99044.63;;;27.20;52.67
33280;BME280;20403;43.114;12.434;2023-05-09T10:42:19;99045.69;;;26.95;46.95
33280;BME280;20403;43.114;12.434;2023-05-09T10:44:48;99041.66;;;26.89;48.51
33280;BME280;20403;43.114;12.434;2023-05-09T10:47:14;99037.94;;;27.27;47.73
33280;BME280;20403;43.114;12.434;2023-05-09T10:49:39;99036.88;;;27.68;45.15
33280;BME280;20403;43.114;12.434;2023-05-09T10:52:05;99024.19;;;28.18;42.43
33280;BME280;20403;43.114;12.434;2023-05-09T10:54:31;99033.94;;;28.10;44.62
33280;BME280;20403;43.114;12.434;2023-05-09T10:56:59;99035.53;;;27.86;43.75
33280;BME280;20403;43.114;12.434;2023-05-09T10:59:41;99031.34;;;28.14;45.94
33280;BME280;20403;43.114;12.434;2023-05-09T11:02:18;99029.81;;;28.41;42.31
33280;BME280;20403;43.114;12.434;2023-05-09T11:04:45;99016.81;;;28.43;41.08
33280;BME280;20403;43.114;12.434;2023-05-09T11:07:24;99014.41;;;28.82;41.19
33280;BME280;20403;43.114;12.434;2023-05-09T11:10:06;99012.25;;;28.87;42.27
33280;BME280;20403;43.114;12.434;2023-05-09T11:12:32;99005.13;;;29.27;44.03
33280;BME280;20403;43.114;12.434;2023-05-09T11:15:04;99000.56;;;28.80;41.92
33280;BME280;20403;43.114;12.434;2023-05-09T11:17:30;98999.59;;;28.88;42.81
33280;BME280;20403;43.114;12.434;2023-05-09T11:19:57;98995.28;;;29.15;43.69
33280;BME280;20403;43.114;12.434;2023-05-09T11:22:25;98984.84;;;29.29;42.34
33280;BME280;20403;43.114;12.434;2023-05-09T11:25:06;98987.19;;;29.66;41.07
33280;BME280;20403;43.114;12.434;2023-05-09T11:27:50;98986.53;;;29.89;41.23
33280;BME280;20403;43.114;12.434;2023-05-09T11:30:18;98977.13;;;29.99;43.80
33280;BME280;20403;43.114;12.434;2023-05-09T11:32:51;98970.69;;;29.48;41.08
33280;BME280;20403;43.114;12.434;2023-05-09T11:35:20;98970.00;;;29.16;41.08
33280;BME280;20403;43.114;12.434;2023-05-09T11:37:59;98970.38;;;29.34;41.35
33280;BME280;20403;43.114;12.434;2023-05-09T11:40:26;98972.84;;;29.59;41.81
33280;BME280;20403;43.114;12.434;2023-05-09T11:42:53;98970.78;;;29.52;41.83
33280;BME280;20403;43.114;12.434;2023-05-09T11:45:24;98973.16;;;29.38;40.98
33280;BME280;20403;43.114;12.434;2023-05-09T11:47:51;98964.25;;;29.02;41.96
33280;BME280;20403;43.114;12.434;2023-05-09T11:50:18;98964.53;;;28.97;43.15
33280;BME280;20403;43.114;12.434;2023-05-09T11:52:45;98956.13;;;28.98;40.35
33280;BME280;20403;43.114;12.434;2023-05-09T11:55:13;98963.06;;;29.15;42.22
33280;BME280;20403;43.114;12.434;2023-05-09T11:57:40;98951.63;;;29.53;41.18
33280;BME280;20403;43.114;12.434;2023-05-09T12:00:07;98955.91;;;29.74;40.93
33280;BME280;20403;43.114;12.434;2023-05-09T12:02:35;98952.44;;;29.73;39.54
33280;BME280;20403;43.114;12.434;2023-05-09T12:05:11;98946.94;;;29.50;39.65
33280;BME280;20403;43.114;12.434;2023-05-09T12:07:37;98951.63;;;29.53;40.42
33280;BME280;20403;43.114;12.434;2023-05-09T12:10:07;98944.53;;;29.45;40.74
33280;BME280;20403;43.114;12.434;2023-05-09T12:12:41;98948.03;;;29.65;40.56
33280;BME280;20403;43.114;12.434;2023-05-09T12:15:08;98950.81;;;29.88;39.92
33280;BME280;20403;43.114;12.434;2023-05-09T12:17:37;98945.38;;;30.04;38.93
33280;BME280;20403;43.114;12.434;2023-05-09T12:20:03;98942.22;;;29.63;38.43
33280;BME280;20403;43.114;12.434;2023-05-09T12:22:31;98946.00;;;28.76;40.02
33280;BME280;20403;43.114;12.434;2023-05-09T12:25:00;98933.63;;;28.11;40.87
33280;BME280;20403;43.114;12.434;2023-05-09T12:27:27;98940.59;;;27.47;41.17
33280;BME280;20403;43.114;12.434;2023-05-09T12:29:53;98941.81;;;27.62;41.94
33280;BME280;20403;43.114;12.434;2023-05-09T12:32:19;98931.56;;;28.20;39.06
33280;BME280;20403;43.114;12.434;2023-05-09T12:34:45;98926.72;;;28.10;40.27
33280;BME280;20403;43.114;12.434;2023-05-09T12:37:16;98933.28;;;27.72;40.73
33280;BME280;20403;43.114;12.434;2023-05-09T12:40:02;98938.81;;;27.51;41.34
33280;BME280;20403;43.114;12.434;2023-05-09T12:42:33;98931.25;;;27.16;43.14
33280;BME280;20403;43.114;12.434;2023-05-09T12:45:03;98938.28;;;26.72;48.09
33280;BME280;20403;43.114;12.434;2023-05-09T12:47:29;98939.06;;;26.60;48.94
33280;BME280;20403;43.114;12.434;2023-05-09T12:50:02;98938.75;;;26.40;50.27
33280;BME280;20403;43.114;12.434;2023-05-09T12:52:38;98932.59;;;26.28;51.52
33280;BME280;20403;43.114;12.434;2023-05-09T12:55:12;98926.31;;;26.11;52.73
33280;BME280;20403;43.114;12.434;2023-05-09T12:57:39;98918.59;;;25.97;55.05
33280;BME280;20403;43.114;12.434;2023-05-09T13:00:07;98920.19;;;25.90;58.66